Yale, Canada
Current Conditions -  °F | °C
As of 7:00 PM on Saturday 25 Oct 2014 (Local Time) from CYHE Reporting Station
Light Rain Light Rain  
Wind Chill: 50°   Ceiling: 9500
Heat Index: 50°   Visibility: 9mi
Dew Point: 48°   Wind: 9mph
Humidity: 94%   Direction: 90°E
Pressure: 29.32"   Gusts: NA
Location:  49.56°N, 121.43°W
Report Text: CYHE 260200Z AUTO 09008KT 9SM -RA OVC095 10/09 A2932 RMK SLP928 DENSITY ALT 200FT
Loading
Personal Weather Stations






























Interactive Weather Map
Tropical Storm Tracking
New forecast layout! Learn more

10-Day Weather Forecast

Advertisements
Track Severe Weather on mobile